sensor_id;sensor_type;location;lat;lon;timestamp;P1;durP1;ratioP1;P2;durP2;ratioP2
68284;SDS011;55114;52.052;5.238;2023-04-27T00:01:11;9.75;;;3.17;;
68284;SDS011;55114;52.052;5.238;2023-04-27T00:03:38;9.32;;;3.05;;
68284;SDS011;55114;52.052;5.238;2023-04-27T00:06:07;9.65;;;3.13;;
68284;SDS011;55114;52.052;5.238;2023-04-27T00:08:35;10.15;;;3.13;;
68284;SDS011;55114;52.052;5.238;2023-04-27T00:11:02;9.17;;;2.73;;
68284;SDS011;55114;52.052;5.238;2023-04-27T00:13:30;9.18;;;2.63;;
68284;SDS011;55114;52.052;5.238;2023-04-27T00:15:57;8.60;;;2.83;;
68284;SDS011;55114;52.052;5.238;2023-04-27T00:18:26;7.53;;;2.78;;
68284;SDS011;55114;52.052;5.238;2023-04-27T00:20:53;8.45;;;2.83;;
68284;SDS011;55114;52.052;5.238;2023-04-27T00:23:21;7.93;;;3.00;;
68284;SDS011;55114;52.052;5.238;2023-04-27T00:25:49;8.90;;;3.03;;
68284;SDS011;55114;52.052;5.238;2023-04-27T00:28:16;11.48;;;3.20;;
68284;SDS011;55114;52.052;5.238;2023-04-27T00:30:43;7.35;;;2.63;;
68284;SDS011;55114;52.052;5.238;2023-04-27T00:33:10;8.18;;;2.50;;
68284;SDS011;55114;52.052;5.238;2023-04-27T00:35:38;9.77;;;2.90;;
68284;SDS011;55114;52.052;5.238;2023-04-27T00:38:06;7.32;;;2.42;;
68284;SDS011;55114;52.052;5.238;2023-04-27T00:40:33;6.10;;;2.45;;
68284;SDS011;55114;52.052;5.238;2023-04-27T00:43:00;6.57;;;2.38;;
68284;SDS011;55114;52.052;5.238;2023-04-27T00:45:27;6.43;;;2.35;;
68284;SDS011;55114;52.052;5.238;2023-04-27T00:47:54;6.57;;;2.37;;
68284;SDS011;55114;52.052;5.238;2023-04-27T00:50:26;7.10;;;2.40;;
68284;SDS011;55114;52.052;5.238;2023-04-27T00:52:55;7.95;;;2.22;;
68284;SDS011;55114;52.052;5.238;2023-04-27T00:55:24;6.10;;;2.38;;
68284;SDS011;55114;52.052;5.238;2023-04-27T00:57:52;5.22;;;1.75;;
68284;SDS011;55114;52.052;5.238;2023-04-27T01:00:19;6.60;;;2.30;;
68284;SDS011;55114;52.052;5.238;2023-04-27T01:02:46;6.15;;;2.10;;
68284;SDS011;55114;52.052;5.238;2023-04-27T01:05:14;6.82;;;2.20;;
68284;SDS011;55114;52.052;5.238;2023-04-27T01:07:42;6.22;;;1.98;;
68284;SDS011;55114;52.052;5.238;2023-04-27T01:10:09;7.45;;;2.22;;
68284;SDS011;55114;52.052;5.238;2023-04-27T01:12:36;7.40;;;2.30;;
68284;SDS011;55114;52.052;5.238;2023-04-27T01:15:04;7.57;;;2.38;;
68284;SDS011;55114;52.052;5.238;2023-04-27T01:17:32;6.57;;;2.10;;
68284;SDS011;55114;52.052;5.238;2023-04-27T01:19:59;6.78;;;2.35;;
68284;SDS011;55114;52.052;5.238;2023-04-27T01:22:27;6.95;;;2.30;;
68284;SDS011;55114;52.052;5.238;2023-04-27T01:24:55;7.63;;;2.30;;
68284;SDS011;55114;52.052;5.238;2023-04-27T01:27:22;8.98;;;2.63;;
68284;SDS011;55114;52.052;5.238;2023-04-27T01:29:49;8.13;;;2.40;;
68284;SDS011;55114;52.052;5.238;2023-04-27T01:32:16;6.75;;;2.70;;
68284;SDS011;55114;52.052;5.238;2023-04-27T01:34:44;6.15;;;2.47;;
68284;SDS011;55114;52.052;5.238;2023-04-27T01:37:11;6.47;;;2.37;;
68284;SDS011;55114;52.052;5.238;2023-04-27T01:39:38;7.53;;;2.90;;
68284;SDS011;55114;52.052;5.238;2023-04-27T01:42:06;7.95;;;2.50;;
68284;SDS011;55114;52.052;5.238;2023-04-27T01:44:33;9.93;;;2.53;;
68284;SDS011;55114;52.052;5.238;2023-04-27T01:47:00;7.03;;;2.50;;
68284;SDS011;55114;52.052;5.238;2023-04-27T01:49:27;6.57;;;2.37;;
68284;SDS011;55114;52.052;5.238;2023-04-27T01:51:55;7.18;;;2.85;;
68284;SDS011;55114;52.052;5.238;2023-04-27T01:54:22;7.50;;;2.75;;
68284;SDS011;55114;52.052;5.238;2023-04-27T01:56:52;8.35;;;2.63;;
68284;SDS011;55114;52.052;5.238;2023-04-27T01:59:19;10.05;;;3.08;;
68284;SDS011;55114;52.052;5.238;2023-04-27T02:01:47;9.13;;;3.03;;
68284;SDS011;55114;52.052;5.238;2023-04-27T02:04:14;7.43;;;2.97;;
68284;SDS011;55114;52.052;5.238;2023-04-27T02:06:41;9.25;;;3.13;;
68284;SDS011;55114;52.052;5.238;2023-04-27T02:09:09;10.13;;;2.75;;
68284;SDS011;55114;52.052;5.238;2023-04-27T02:11:36;8.32;;;2.85;;
68284;SDS011;55114;52.052;5.238;2023-04-27T02:14:03;7.83;;;2.80;;
68284;SDS011;55114;52.052;5.238;2023-04-27T02:16:30;7.32;;;2.78;;
68284;SDS011;55114;52.052;5.238;2023-04-27T02:18:58;7.47;;;2.65;;
68284;SDS011;55114;52.052;5.238;2023-04-27T02:21:25;7.18;;;2.83;;
68284;SDS011;55114;52.052;5.238;2023-04-27T02:23:53;7.78;;;2.53;;
68284;SDS011;55114;52.052;5.238;2023-04-27T02:26:21;7.60;;;2.47;;
68284;SDS011;55114;52.052;5.238;2023-04-27T02:28:54;6.00;;;2.50;;
68284;SDS011;55114;52.052;5.238;2023-04-27T02:31:22;7.57;;;2.78;;
68284;SDS011;55114;52.052;5.238;2023-04-27T02:33:50;10.52;;;2.92;;
68284;SDS011;55114;52.052;5.238;2023-04-27T02:36:17;8.55;;;3.20;;
68284;SDS011;55114;52.052;5.238;2023-04-27T02:38:44;8.30;;;3.00;;
68284;SDS011;55114;52.052;5.238;2023-04-27T02:41:11;7.65;;;2.70;;
68284;SDS011;55114;52.052;5.238;2023-04-27T02:43:39;8.27;;;2.75;;
68284;SDS011;55114;52.052;5.238;2023-04-27T02:46:06;7.30;;;2.88;;
68284;SDS011;55114;52.052;5.238;2023-04-27T02:48:33;7.65;;;2.50;;
68284;SDS011;55114;52.052;5.238;2023-04-27T02:51:04;8.77;;;2.83;;
68284;SDS011;55114;52.052;5.238;2023-04-27T02:53:32;7.03;;;2.53;;
68284;SDS011;55114;52.052;5.238;2023-04-27T02:55:59;7.13;;;2.85;;
68284;SDS011;55114;52.052;5.238;2023-04-27T02:58:27;7.78;;;2.70;;
68284;SDS011;55114;52.052;5.238;2023-04-27T03:00:54;6.35;;;2.38;;
68284;SDS011;55114;52.052;5.238;2023-04-27T03:03:22;7.10;;;2.77;;
68284;SDS011;55114;52.052;5.238;2023-04-27T03:05:50;6.68;;;2.72;;
68284;SDS011;55114;52.052;5.238;2023-04-27T03:08:17;7.03;;;2.78;;
68284;SDS011;55114;52.052;5.238;2023-04-27T03:10:44;6.25;;;2.78;;
68284;SDS011;55114;52.052;5.238;2023-04-27T03:13:13;7.30;;;2.85;;
68284;SDS011;55114;52.052;5.238;2023-04-27T03:15:41;7.30;;;2.30;;
68284;SDS011;55114;52.052;5.238;2023-04-27T03:18:08;6.38;;;2.60;;
68284;SDS011;55114;52.052;5.238;2023-04-27T03:20:36;9.50;;;2.85;;
68284;SDS011;55114;52.052;5.238;2023-04-27T03:23:03;7.35;;;2.80;;
68284;SDS011;55114;52.052;5.238;2023-04-27T03:25:32;7.45;;;2.58;;
68284;SDS011;55114;52.052;5.238;2023-04-27T03:27:59;9.13;;;3.13;;
68284;SDS011;55114;52.052;5.238;2023-04-27T03:30:26;10.95;;;2.78;;
68284;SDS011;55114;52.052;5.238;2023-04-27T03:32:53;7.68;;;2.90;;
68284;SDS011;55114;52.052;5.238;2023-04-27T03:35:21;9.43;;;2.80;;
68284;SDS011;55114;52.052;5.238;2023-04-27T03:37:49;9.73;;;2.78;;
68284;SDS011;55114;52.052;5.238;2023-04-27T03:40:16;7.77;;;2.97;;
68284;SDS011;55114;52.052;5.238;2023-04-27T03:42:43;9.55;;;2.80;;
68284;SDS011;55114;52.052;5.238;2023-04-27T03:45:10;8.45;;;2.80;;
68284;SDS011;55114;52.052;5.238;2023-04-27T03:47:38;7.97;;;2.90;;
68284;SDS011;55114;52.052;5.238;2023-04-27T03:50:05;8.65;;;2.92;;
68284;SDS011;55114;52.052;5.238;2023-04-27T03:52:33;7.73;;;3.00;;
68284;SDS011;55114;52.052;5.238;2023-04-27T03:55:00;8.73;;;3.10;;
68284;SDS011;55114;52.052;5.238;2023-04-27T03:57:27;8.75;;;2.90;;
68284;SDS011;55114;52.052;5.238;2023-04-27T03:59:55;8.93;;;3.20;;
68284;SDS011;55114;52.052;5.238;2023-04-27T04:02:23;12.75;;;3.60;;
68284;SDS011;55114;52.052;5.238;2023-04-27T04:04:50;7.07;;;2.93;;
68284;SDS011;55114;52.052;5.238;2023-04-27T04:07:18;7.32;;;2.45;;
68284;SDS011;55114;52.052;5.238;2023-04-27T04:09:45;8.32;;;2.85;;
68284;SDS011;55114;52.052;5.238;2023-04-27T04:12:13;8.98;;;2.95;;
68284;SDS011;55114;52.052;5.238;2023-04-27T04:14:40;9.07;;;2.70;;
68284;SDS011;55114;52.052;5.238;2023-04-27T04:17:08;7.90;;;2.97;;
68284;SDS011;55114;52.052;5.238;2023-04-27T04:19:38;8.57;;;3.33;;
68284;SDS011;55114;52.052;5.238;2023-04-27T04:22:06;9.13;;;3.10;;
68284;SDS011;55114;52.052;5.238;2023-04-27T04:24:33;8.55;;;2.97;;
68284;SDS011;55114;52.052;5.238;2023-04-27T04:27:01;9.88;;;2.90;;
68284;SDS011;55114;52.052;5.238;2023-04-27T04:29:28;8.67;;;3.07;;
68284;SDS011;55114;52.052;5.238;2023-04-27T04:31:55;8.38;;;2.88;;
68284;SDS011;55114;52.052;5.238;2023-04-27T04:34:23;10.45;;;3.40;;
68284;SDS011;55114;52.052;5.238;2023-04-27T04:36:50;9.48;;;3.17;;
68284;SDS011;55114;52.052;5.238;2023-04-27T04:39:18;8.77;;;3.55;;
68284;SDS011;55114;52.052;5.238;2023-04-27T04:41:48;10.83;;;3.40;;
68284;SDS011;55114;52.052;5.238;2023-04-27T04:44:16;10.05;;;2.90;;
68284;SDS011;55114;52.052;5.238;2023-04-27T04:46:44;7.70;;;2.80;;
68284;SDS011;55114;52.052;5.238;2023-04-27T04:49:12;7.78;;;2.83;;
68284;SDS011;55114;52.052;5.238;2023-04-27T04:51:43;6.57;;;2.58;;
68284;SDS011;55114;52.052;5.238;2023-04-27T04:54:11;7.63;;;3.00;;
68284;SDS011;55114;52.052;5.238;2023-04-27T04:56:38;7.30;;;3.05;;
68284;SDS011;55114;52.052;5.238;2023-04-27T04:59:05;9.35;;;2.90;;
68284;SDS011;55114;52.052;5.238;2023-04-27T05:01:32;9.52;;;2.92;;
68284;SDS011;55114;52.052;5.238;2023-04-27T05:04:00;9.93;;;3.40;;
68284;SDS011;55114;52.052;5.238;2023-04-27T05:06:29;9.23;;;3.37;;
68284;SDS011;55114;52.052;5.238;2023-04-27T05:08:57;8.80;;;3.33;;
68284;SDS011;55114;52.052;5.238;2023-04-27T05:11:24;8.70;;;3.28;;
68284;SDS011;55114;52.052;5.238;2023-04-27T05:13:52;8.35;;;2.97;;
68284;SDS011;55114;52.052;5.238;2023-04-27T05:16:19;8.60;;;3.20;;
68284;SDS011;55114;52.052;5.238;2023-04-27T05:18:46;8.07;;;3.23;;
68284;SDS011;55114;52.052;5.238;2023-04-27T05:21:14;9.38;;;3.45;;
68284;SDS011;55114;52.052;5.238;2023-04-27T05:23:41;8.95;;;3.22;;
68284;SDS011;55114;52.052;5.238;2023-04-27T05:26:16;8.73;;;3.00;;
68284;SDS011;55114;52.052;5.238;2023-04-27T05:28:43;7.60;;;2.85;;
68284;SDS011;55114;52.052;5.238;2023-04-27T05:31:12;9.50;;;3.17;;
68284;SDS011;55114;52.052;5.238;2023-04-27T05:33:39;6.72;;;2.40;;
68284;SDS011;55114;52.052;5.238;2023-04-27T05:36:06;9.60;;;2.97;;
68284;SDS011;55114;52.052;5.238;2023-04-27T05:38:34;8.55;;;3.30;;
68284;SDS011;55114;52.052;5.238;2023-04-27T05:41:05;6.60;;;2.47;;
68284;SDS011;55114;52.052;5.238;2023-04-27T05:43:32;8.52;;;2.92;;
68284;SDS011;55114;52.052;5.238;2023-04-27T05:46:06;8.05;;;3.17;;
68284;SDS011;55114;52.052;5.238;2023-04-27T05:48:33;7.78;;;3.20;;
68284;SDS011;55114;52.052;5.238;2023-04-27T05:51:01;9.77;;;3.10;;
68284;SDS011;55114;52.052;5.238;2023-04-27T05:53:28;8.15;;;3.15;;
68284;SDS011;55114;52.052;5.238;2023-04-27T05:55:56;8.60;;;3.20;;
68284;SDS011;55114;52.052;5.238;2023-04-27T05:58:24;9.60;;;3.80;;
68284;SDS011;55114;52.052;5.238;2023-04-27T06:00:52;7.03;;;3.30;;
68284;SDS011;55114;52.052;5.238;2023-04-27T06:03:19;9.23;;;3.70;;
68284;SDS011;55114;52.052;5.238;2023-04-27T06:05:52;8.63;;;3.30;;
68284;SDS011;55114;52.052;5.238;2023-04-27T06:08:22;10.48;;;3.20;;
68284;SDS011;55114;52.052;5.238;2023-04-27T06:10:49;7.07;;;2.83;;
68284;SDS011;55114;52.052;5.238;2023-04-27T06:13:17;8.18;;;3.00;;
68284;SDS011;55114;52.052;5.238;2023-04-27T06:15:44;6.55;;;3.00;;
68284;SDS011;55114;52.052;5.238;2023-04-27T06:18:11;6.85;;;2.95;;
68284;SDS011;55114;52.052;5.238;2023-04-27T06:20:39;6.28;;;2.88;;
68284;SDS011;55114;52.052;5.238;2023-04-27T06:23:07;7.38;;;2.60;;
68284;SDS011;55114;52.052;5.238;2023-04-27T06:25:34;7.15;;;2.78;;
68284;SDS011;55114;52.052;5.238;2023-04-27T06:28:03;6.45;;;2.50;;
68284;SDS011;55114;52.052;5.238;2023-04-27T06:30:31;8.95;;;2.83;;
68284;SDS011;55114;52.052;5.238;2023-04-27T06:32:58;7.57;;;2.70;;
68284;SDS011;55114;52.052;5.238;2023-04-27T06:35:25;6.18;;;2.70;;
68284;SDS011;55114;52.052;5.238;2023-04-27T06:37:53;7.22;;;2.47;;
68284;SDS011;55114;52.052;5.238;2023-04-27T06:40:24;9.15;;;3.33;;
68284;SDS011;55114;52.052;5.238;2023-04-27T06:42:52;6.53;;;2.90;;
68284;SDS011;55114;52.052;5.238;2023-04-27T06:45:19;6.00;;;2.50;;
68284;SDS011;55114;52.052;5.238;2023-04-27T06:47:47;8.02;;;3.08;;
68284;SDS011;55114;52.052;5.238;2023-04-27T06:50:14;8.07;;;3.10;;
68284;SDS011;55114;52.052;5.238;2023-04-27T06:52:41;6.07;;;2.88;;
68284;SDS011;55114;52.052;5.238;2023-04-27T06:55:09;8.55;;;2.78;;
68284;SDS011;55114;52.052;5.238;2023-04-27T06:57:36;5.38;;;2.10;;
68284;SDS011;55114;52.052;5.238;2023-04-27T07:00:03;5.65;;;2.30;;
68284;SDS011;55114;52.052;5.238;2023-04-27T07:02:30;7.47;;;2.55;;
68284;SDS011;55114;52.052;5.238;2023-04-27T07:04:58;8.93;;;2.65;;
68284;SDS011;55114;52.052;5.238;2023-04-27T07:07:25;5.40;;;1.92;;
68284;SDS011;55114;52.052;5.238;2023-04-27T07:09:52;5.63;;;2.30;;
68284;SDS011;55114;52.052;5.238;2023-04-27T07:12:20;9.25;;;2.42;;
68284;SDS011;55114;52.052;5.238;2023-04-27T07:14:47;8.13;;;2.45;;
68284;SDS011;55114;52.052;5.238;2023-04-27T07:17:16;6.63;;;2.20;;
68284;SDS011;55114;52.052;5.238;2023-04-27T07:19:43;6.45;;;2.33;;
68284;SDS011;55114;52.052;5.238;2023-04-27T07:22:10;7.03;;;2.50;;
68284;SDS011;55114;52.052;5.238;2023-04-27T07:24:37;5.07;;;1.97;;
68284;SDS011;55114;52.052;5.238;2023-04-27T07:27:05;6.28;;;2.60;;
68284;SDS011;55114;52.052;5.238;2023-04-27T07:29:32;6.20;;;2.25;;
68284;SDS011;55114;52.052;5.238;2023-04-27T07:32:06;5.13;;;2.10;;
68284;SDS011;55114;52.052;5.238;2023-04-27T07:34:34;6.93;;;2.13;;
68284;SDS011;55114;52.052;5.238;2023-04-27T07:37:05;7.23;;;1.90;;
68284;SDS011;55114;52.052;5.238;2023-04-27T07:39:33;5.60;;;2.50;;
68284;SDS011;55114;52.052;5.238;2023-04-27T07:42:01;5.93;;;2.17;;
68284;SDS011;55114;52.052;5.238;2023-04-27T07:44:29;6.55;;;2.20;;
68284;SDS011;55114;52.052;5.238;2023-04-27T07:46:56;7.57;;;2.40;;
68284;SDS011;55114;52.052;5.238;2023-04-27T07:49:23;6.03;;;2.23;;
68284;SDS011;55114;52.052;5.238;2023-04-27T07:51:51;6.82;;;2.30;;
68284;SDS011;55114;52.052;5.238;2023-04-27T07:54:18;6.45;;;2.05;;
68284;SDS011;55114;52.052;5.238;2023-04-27T07:56:46;6.57;;;2.47;;
68284;SDS011;55114;52.052;5.238;2023-04-27T07:59:13;7.07;;;2.30;;
68284;SDS011;55114;52.052;5.238;2023-04-27T08:01:41;5.43;;;2.20;;
68284;SDS011;55114;52.052;5.238;2023-04-27T08:04:08;5.68;;;2.30;;
68284;SDS011;55114;52.052;5.238;2023-04-27T08:06:38;4.53;;;1.98;;
68284;SDS011;55114;52.052;5.238;2023-04-27T08:09:06;4.80;;;1.90;;
68284;SDS011;55114;52.052;5.238;2023-04-27T08:11:34;5.38;;;2.10;;
68284;SDS011;55114;52.052;5.238;2023-04-27T08:14:01;6.57;;;2.00;;
68284;SDS011;55114;52.052;5.238;2023-04-27T08:16:29;5.20;;;1.80;;
68284;SDS011;55114;52.052;5.238;2023-04-27T08:18:56;4.88;;;1.85;;
68284;SDS011;55114;52.052;5.238;2023-04-27T08:21:25;6.20;;;1.95;;
68284;SDS011;55114;52.052;5.238;2023-04-27T08:23:53;4.90;;;1.80;;
68284;SDS011;55114;52.052;5.238;2023-04-27T08:26:20;4.70;;;2.10;;
68284;SDS011;55114;52.052;5.238;2023-04-27T08:28:51;5.95;;;2.30;;
68284;SDS011;55114;52.052;5.238;2023-04-27T08:31:18;4.70;;;2.05;;
68284;SDS011;55114;52.052;5.238;2023-04-27T08:33:45;4.82;;;1.80;;
68284;SDS011;55114;52.052;5.238;2023-04-27T08:36:13;5.90;;;1.92;;
68284;SDS011;55114;52.052;5.238;2023-04-27T08:38:40;6.10;;;2.27;;
68284;SDS011;55114;52.052;5.238;2023-04-27T08:41:07;4.15;;;1.83;;
68284;SDS011;55114;52.052;5.238;2023-04-27T08:43:47;4.90;;;2.15;;
68284;SDS011;55114;52.052;5.238;2023-04-27T08:48:48;6.30;;;2.03;;
68284;SDS011;55114;52.052;5.238;2023-04-27T08:51:16;5.13;;;1.70;;
68284;SDS011;55114;52.052;5.238;2023-04-27T08:53:54;5.30;;;1.90;;
68284;SDS011;55114;52.052;5.238;2023-04-27T08:56:22;5.22;;;2.20;;
68284;SDS011;55114;52.052;5.238;2023-04-27T08:58:50;5.03;;;2.00;;
68284;SDS011;55114;52.052;5.238;2023-04-27T09:01:18;4.93;;;2.00;;
68284;SDS011;55114;52.052;5.238;2023-04-27T09:03:46;5.10;;;2.30;;
68284;SDS011;55114;52.052;5.238;2023-04-27T09:06:14;6.38;;;2.38;;
68284;SDS011;55114;52.052;5.238;2023-04-27T09:11:09;4.03;;;1.90;;
68284;SDS011;55114;52.052;5.238;2023-04-27T09:13:37;4.25;;;1.83;;
68284;SDS011;55114;52.052;5.238;2023-04-27T09:16:05;5.37;;;1.70;;
68284;SDS011;55114;52.052;5.238;2023-04-27T09:18:34;4.13;;;1.92;;
68284;SDS011;55114;52.052;5.238;2023-04-27T09:21:02;4.70;;;1.95;;
68284;SDS011;55114;52.052;5.238;2023-04-27T09:23:34;4.10;;;1.70;;
68284;SDS011;55114;52.052;5.238;2023-04-27T09:26:02;5.47;;;2.22;;
68284;SDS011;55114;52.052;5.238;2023-04-27T09:28:34;5.47;;;2.10;;
68284;SDS011;55114;52.052;5.238;2023-04-27T09:31:02;6.10;;;1.70;;
68284;SDS011;55114;52.052;5.238;2023-04-27T09:33:31;5.28;;;1.90;;
68284;SDS011;55114;52.052;5.238;2023-04-27T09:35:59;5.53;;;2.10;;
68284;SDS011;55114;52.052;5.238;2023-04-27T09:38:27;5.47;;;2.25;;
68284;SDS011;55114;52.052;5.238;2023-04-27T09:40:55;3.90;;;1.90;;
68284;SDS011;55114;52.052;5.238;2023-04-27T09:43:23;6.07;;;2.50;;
68284;SDS011;55114;52.052;5.238;2023-04-27T09:45:52;4.85;;;2.20;;
68284;SDS011;55114;52.052;5.238;2023-04-27T09:48:21;4.70;;;2.08;;
68284;SDS011;55114;52.052;5.238;2023-04-27T09:50:48;4.80;;;2.00;;
68284;SDS011;55114;52.052;5.238;2023-04-27T09:56:01;4.35;;;2.13;;
68284;SDS011;55114;52.052;5.238;2023-04-27T10:01:44;6.03;;;2.67;;
68284;SDS011;55114;52.052;5.238;2023-04-27T10:09:01;4.50;;;2.20;;
68284;SDS011;55114;52.052;5.238;2023-04-27T10:11:38;5.78;;;2.38;;
68284;SDS011;55114;52.052;5.238;2023-04-27T10:14:07;6.13;;;2.47;;
68284;SDS011;55114;52.052;5.238;2023-04-27T10:16:50;5.00;;;2.50;;
68284;SDS011;55114;52.052;5.238;2023-04-27T10:19:19;5.50;;;2.30;;
68284;SDS011;55114;52.052;5.238;2023-04-27T10:22:20;4.60;;;2.13;;
68284;SDS011;55114;52.052;5.238;2023-04-27T10:24:42;6.80;;;2.20;;
68284;SDS011;55114;52.052;5.238;2023-04-27T10:27:15;6.57;;;2.50;;
68284;SDS011;55114;52.052;5.238;2023-04-27T10:29:45;5.55;;;2.60;;
68284;SDS011;55114;52.052;5.238;2023-04-27T10:34:47;6.93;;;2.70;;
68284;SDS011;55114;52.052;5.238;2023-04-27T10:37:14;6.80;;;3.10;;
68284;SDS011;55114;52.052;5.238;2023-04-27T10:39:42;5.03;;;2.42;;
68284;SDS011;55114;52.052;5.238;2023-04-27T10:42:24;6.20;;;2.83;;
68284;SDS011;55114;52.052;5.238;2023-04-27T10:44:55;6.33;;;2.77;;
68284;SDS011;55114;52.052;5.238;2023-04-27T10:47:23;5.97;;;2.65;;
68284;SDS011;55114;52.052;5.238;2023-04-27T10:49:53;6.50;;;2.72;;
68284;SDS011;55114;52.052;5.238;2023-04-27T10:52:20;5.53;;;2.63;;
68284;SDS011;55114;52.052;5.238;2023-04-27T10:54:48;5.68;;;2.85;;
68284;SDS011;55114;52.052;5.238;2023-04-27T10:57:15;5.93;;;2.60;;
68284;SDS011;55114;52.052;5.238;2023-04-27T10:59:49;5.90;;;2.50;;
68284;SDS011;55114;52.052;5.238;2023-04-27T11:02:23;6.85;;;2.83;;
68284;SDS011;55114;52.052;5.238;2023-04-27T11:04:51;5.88;;;2.70;;
68284;SDS011;55114;52.052;5.238;2023-04-27T11:07:23;5.47;;;2.63;;
68284;SDS011;55114;52.052;5.238;2023-04-27T11:09:51;5.43;;;2.60;;
68284;SDS011;55114;52.052;5.238;2023-04-27T11:12:18;5.70;;;2.53;;
68284;SDS011;55114;52.052;5.238;2023-04-27T11:14:46;4.70;;;2.90;;
68284;SDS011;55114;52.052;5.238;2023-04-27T11:17:15;8.77;;;2.95;;
68284;SDS011;55114;52.052;5.238;2023-04-27T11:19:45;4.93;;;2.50;;
68284;SDS011;55114;52.052;5.238;2023-04-27T11:22:13;5.27;;;2.70;;
68284;SDS011;55114;52.052;5.238;2023-04-27T11:24:47;5.45;;;3.00;;
68284;SDS011;55114;52.052;5.238;2023-04-27T11:27:15;9.02;;;3.00;;
68284;SDS011;55114;52.052;5.238;2023-04-27T11:29:43;5.72;;;2.80;;
68284;SDS011;55114;52.052;5.238;2023-04-27T11:32:17;6.97;;;2.75;;
68284;SDS011;55114;52.052;5.238;2023-04-27T11:34:48;7.07;;;2.90;;
68284;SDS011;55114;52.052;5.238;2023-04-27T11:37:20;6.28;;;2.90;;
68284;SDS011;55114;52.052;5.238;2023-04-27T11:39:49;5.25;;;2.83;;
68284;SDS011;55114;52.052;5.238;2023-04-27T11:42:20;4.57;;;2.85;;
68284;SDS011;55114;52.052;5.238;2023-04-27T11:44:52;5.35;;;2.70;;
68284;SDS011;55114;52.052;5.238;2023-04-27T11:47:19;7.40;;;2.73;;
68284;SDS011;55114;52.052;5.238;2023-04-27T11:49:48;7.00;;;2.95;;
68284;SDS011;55114;52.052;5.238;2023-04-27T11:52:15;6.57;;;2.95;;
68284;SDS011;55114;52.052;5.238;2023-04-27T11:54:49;6.10;;;2.80;;
68284;SDS011;55114;52.052;5.238;2023-04-27T11:57:28;5.55;;;2.83;;
68284;SDS011;55114;52.052;5.238;2023-04-27T11:59:57;4.90;;;2.60;;
68284;SDS011;55114;52.052;5.238;2023-04-27T12:02:28;5.10;;;2.72;;
68284;SDS011;55114;52.052;5.238;2023-04-27T12:04:57;7.18;;;3.00;;
68284;SDS011;55114;52.052;5.238;2023-04-27T12:07:29;6.50;;;3.20;;
68284;SDS011;55114;52.052;5.238;2023-04-27T12:09:56;5.25;;;2.80;;
68284;SDS011;55114;52.052;5.238;2023-04-27T12:12:26;5.00;;;2.87;;
68284;SDS011;55114;52.052;5.238;2023-04-27T12:14:53;7.22;;;2.90;;
68284;SDS011;55114;52.052;5.238;2023-04-27T12:17:20;4.80;;;2.88;;
68284;SDS011;55114;52.052;5.238;2023-04-27T12:19:48;6.13;;;2.97;;
68284;SDS011;55114;52.052;5.238;2023-04-27T12:22:15;6.63;;;3.20;;
68284;SDS011;55114;52.052;5.238;2023-04-27T12:24:42;5.47;;;2.90;;
68284;SDS011;55114;52.052;5.238;2023-04-27T12:27:10;6.15;;;3.13;;
68284;SDS011;55114;52.052;5.238;2023-04-27T12:29:37;6.80;;;3.15;;
68284;SDS011;55114;52.052;5.238;2023-04-27T12:32:05;5.70;;;3.13;;
68284;SDS011;55114;52.052;5.238;2023-04-27T12:34:32;5.53;;;3.28;;
68284;SDS011;55114;52.052;5.238;2023-04-27T12:37:00;8.13;;;3.40;;
68284;SDS011;55114;52.052;5.238;2023-04-27T12:39:27;6.10;;;3.60;;
68284;SDS011;55114;52.052;5.238;2023-04-27T12:41:55;6.00;;;3.20;;
68284;SDS011;55114;52.052;5.238;2023-04-27T12:44:23;5.80;;;3.20;;
68284;SDS011;55114;52.052;5.238;2023-04-27T12:46:50;7.75;;;3.25;;
68284;SDS011;55114;52.052;5.238;2023-04-27T12:49:17;6.17;;;3.10;;
68284;SDS011;55114;52.052;5.238;2023-04-27T12:51:45;7.32;;;3.30;;
68284;SDS011;55114;52.052;5.238;2023-04-27T12:54:13;5.25;;;3.00;;
68284;SDS011;55114;52.052;5.238;2023-04-27T12:56:41;7.53;;;3.50;;
68284;SDS011;55114;52.052;5.238;2023-04-27T12:59:08;6.75;;;3.50;;
68284;SDS011;55114;52.052;5.238;2023-04-27T13:01:36;6.07;;;3.37;;
68284;SDS011;55114;52.052;5.238;2023-04-27T13:04:04;6.68;;;3.03;;
68284;SDS011;55114;52.052;5.238;2023-04-27T13:06:32;7.30;;;3.50;;
68284;SDS011;55114;52.052;5.238;2023-04-27T13:08:59;6.40;;;3.30;;
68284;SDS011;55114;52.052;5.238;2023-04-27T13:11:27;8.88;;;3.85;;
68284;SDS011;55114;52.052;5.238;2023-04-27T13:13:55;7.10;;;3.60;;
68284;SDS011;55114;52.052;5.238;2023-04-27T13:16:22;7.82;;;3.38;;
68284;SDS011;55114;52.052;5.238;2023-04-27T13:18:51;8.43;;;3.72;;
68284;SDS011;55114;52.052;5.238;2023-04-27T13:21:19;6.47;;;3.63;;
68284;SDS011;55114;52.052;5.238;2023-04-27T13:23:46;6.90;;;3.40;;
68284;SDS011;55114;52.052;5.238;2023-04-27T13:26:14;7.43;;;3.90;;
68284;SDS011;55114;52.052;5.238;2023-04-27T13:28:42;10.00;;;3.60;;
68284;SDS011;55114;52.052;5.238;2023-04-27T13:31:09;8.88;;;3.60;;
68284;SDS011;55114;52.052;5.238;2023-04-27T13:33:38;5.90;;;3.40;;
68284;SDS011;55114;52.052;5.238;2023-04-27T13:36:06;7.22;;;3.70;;
68284;SDS011;55114;52.052;5.238;2023-04-27T13:38:34;6.43;;;3.47;;
68284;SDS011;55114;52.052;5.238;2023-04-27T13:41:01;5.72;;;3.17;;
68284;SDS011;55114;52.052;5.238;2023-04-27T13:43:29;8.13;;;4.85;;
68284;SDS011;55114;52.052;5.238;2023-04-27T13:45:57;7.50;;;3.53;;
68284;SDS011;55114;52.052;5.238;2023-04-27T13:48:26;9.63;;;4.22;;
68284;SDS011;55114;52.052;5.238;2023-04-27T13:50:54;7.47;;;3.77;;
68284;SDS011;55114;52.052;5.238;2023-04-27T13:53:21;7.18;;;3.72;;
68284;SDS011;55114;52.052;5.238;2023-04-27T13:55:52;7.38;;;3.70;;
68284;SDS011;55114;52.052;5.238;2023-04-27T13:58:20;5.35;;;3.25;;
68284;SDS011;55114;52.052;5.238;2023-04-27T14:00:50;6.72;;;3.25;;
68284;SDS011;55114;52.052;5.238;2023-04-27T14:03:18;6.53;;;3.70;;
68284;SDS011;55114;52.052;5.238;2023-04-27T14:05:47;8.10;;;3.92;;
68284;SDS011;55114;52.052;5.238;2023-04-27T14:08:16;6.25;;;3.38;;
68284;SDS011;55114;52.052;5.238;2023-04-27T14:10:43;6.57;;;3.60;;
68284;SDS011;55114;52.052;5.238;2023-04-27T14:13:11;6.68;;;3.83;;
68284;SDS011;55114;52.052;5.238;2023-04-27T14:15:38;5.83;;;3.53;;
68284;SDS011;55114;52.052;5.238;2023-04-27T14:18:06;6.18;;;3.60;;
68284;SDS011;55114;52.052;5.238;2023-04-27T14:20:34;6.20;;;3.88;;
68284;SDS011;55114;52.052;5.238;2023-04-27T14:23:03;5.65;;;3.50;;
68284;SDS011;55114;52.052;5.238;2023-04-27T14:25:30;8.25;;;3.95;;
68284;SDS011;55114;52.052;5.238;2023-04-27T14:27:59;6.87;;;3.50;;
68284;SDS011;55114;52.052;5.238;2023-04-27T14:30:27;7.53;;;3.60;;
68284;SDS011;55114;52.052;5.238;2023-04-27T14:32:54;6.32;;;4.00;;
68284;SDS011;55114;52.052;5.238;2023-04-27T14:35:21;6.68;;;3.67;;
68284;SDS011;55114;52.052;5.238;2023-04-27T14:37:49;7.57;;;3.60;;
68284;SDS011;55114;52.052;5.238;2023-04-27T14:40:17;8.13;;;3.77;;
68284;SDS011;55114;52.052;5.238;2023-04-27T14:42:48;6.18;;;3.50;;
68284;SDS011;55114;52.052;5.238;2023-04-27T14:45:15;6.35;;;3.55;;
68284;SDS011;55114;52.052;5.238;2023-04-27T14:47:43;5.80;;;3.40;;
68284;SDS011;55114;52.052;5.238;2023-04-27T14:50:10;6.95;;;3.22;;
68284;SDS011;55114;52.052;5.238;2023-04-27T14:52:38;9.30;;;4.30;;
68284;SDS011;55114;52.052;5.238;2023-04-27T14:55:05;7.97;;;3.80;;
68284;SDS011;55114;52.052;5.238;2023-04-27T14:57:33;6.20;;;3.58;;
68284;SDS011;55114;52.052;5.238;2023-04-27T15:00:00;7.60;;;3.80;;
68284;SDS011;55114;52.052;5.238;2023-04-27T15:02:31;7.85;;;3.95;;
68284;SDS011;55114;52.052;5.238;2023-04-27T15:04:59;8.63;;;3.60;;
68284;SDS011;55114;52.052;5.238;2023-04-27T15:07:27;7.95;;;4.05;;
68284;SDS011;55114;52.052;5.238;2023-04-27T15:09:54;6.13;;;3.50;;
68284;SDS011;55114;52.052;5.238;2023-04-27T15:12:21;6.18;;;3.42;;